sensor_id;sensor_type;location;lat;lon;timestamp;P1;durP1;ratioP1;P2;durP2;ratioP2
41755;SDS011;27435;48.480;9.258;2023-08-01T00:00:25;4.47;;;2.40;;
41755;SDS011;27435;48.480;9.258;2023-08-01T00:02:50;4.93;;;2.67;;
41755;SDS011;27435;48.480;9.258;2023-08-01T00:05:16;4.68;;;2.33;;
41755;SDS011;27435;48.480;9.258;2023-08-01T00:07:42;8.27;;;2.60;;
41755;SDS011;27435;48.480;9.258;2023-08-01T00:10:08;5.50;;;2.40;;
41755;SDS011;27435;48.480;9.258;2023-08-01T00:12:34;7.07;;;2.17;;
41755;SDS011;27435;48.480;9.258;2023-08-01T00:14:59;8.88;;;3.20;;
41755;SDS011;27435;48.480;9.258;2023-08-01T00:17:25;5.55;;;2.38;;
41755;SDS011;27435;48.480;9.258;2023-08-01T00:19:51;4.85;;;2.13;;
41755;SDS011;27435;48.480;9.258;2023-08-01T00:22:16;6.25;;;2.63;;
41755;SDS011;27435;48.480;9.258;2023-08-01T00:24:42;7.38;;;2.22;;
41755;SDS011;27435;48.480;9.258;2023-08-01T00:27:08;4.45;;;2.30;;
41755;SDS011;27435;48.480;9.258;2023-08-01T00:29:35;7.07;;;2.83;;
41755;SDS011;27435;48.480;9.258;2023-08-01T00:32:01;6.78;;;2.38;;
41755;SDS011;27435;48.480;9.258;2023-08-01T00:34:27;4.57;;;2.33;;
41755;SDS011;27435;48.480;9.258;2023-08-01T00:36:52;5.07;;;2.30;;
41755;SDS011;27435;48.480;9.258;2023-08-01T00:39:18;7.65;;;2.95;;
41755;SDS011;27435;48.480;9.258;2023-08-01T00:41:44;4.22;;;2.13;;
41755;SDS011;27435;48.480;9.258;2023-08-01T00:44:09;5.95;;;2.78;;
41755;SDS011;27435;48.480;9.258;2023-08-01T00:46:35;4.18;;;1.92;;
41755;SDS011;27435;48.480;9.258;2023-08-01T00:49:01;5.47;;;3.00;;
41755;SDS011;27435;48.480;9.258;2023-08-01T00:51:28;5.63;;;2.67;;
41755;SDS011;27435;48.480;9.258;2023-08-01T00:53:55;6.88;;;2.03;;
41755;SDS011;27435;48.480;9.258;2023-08-01T00:56:20;8.38;;;2.28;;
41755;SDS011;27435;48.480;9.258;2023-08-01T00:58:46;5.82;;;2.25;;
41755;SDS011;27435;48.480;9.258;2023-08-01T01:01:12;3.95;;;1.92;;
41755;SDS011;27435;48.480;9.258;2023-08-01T01:03:38;4.18;;;2.13;;
41755;SDS011;27435;48.480;9.258;2023-08-01T01:06:24;4.93;;;2.08;;
41755;SDS011;27435;48.480;9.258;2023-08-01T01:08:57;9.63;;;3.10;;
41755;SDS011;27435;48.480;9.258;2023-08-01T01:11:22;3.90;;;2.05;;
41755;SDS011;27435;48.480;9.258;2023-08-01T01:13:48;4.72;;;2.42;;
41755;SDS011;27435;48.480;9.258;2023-08-01T01:16:14;3.47;;;1.63;;
41755;SDS011;27435;48.480;9.258;2023-08-01T01:18:40;5.13;;;2.20;;
41755;SDS011;27435;48.480;9.258;2023-08-01T01:21:06;6.85;;;2.38;;
41755;SDS011;27435;48.480;9.258;2023-08-01T01:23:31;4.95;;;2.60;;
41755;SDS011;27435;48.480;9.258;2023-08-01T01:25:58;6.28;;;2.38;;
41755;SDS011;27435;48.480;9.258;2023-08-01T01:28:24;4.30;;;2.15;;
41755;SDS011;27435;48.480;9.258;2023-08-01T01:30:50;6.13;;;2.30;;
41755;SDS011;27435;48.480;9.258;2023-08-01T01:33:18;4.40;;;2.08;;
41755;SDS011;27435;48.480;9.258;2023-08-01T01:35:44;7.80;;;2.30;;
41755;SDS011;27435;48.480;9.258;2023-08-01T01:38:10;7.45;;;2.92;;
41755;SDS011;27435;48.480;9.258;2023-08-01T01:40:35;5.22;;;2.30;;
41755;SDS011;27435;48.480;9.258;2023-08-01T01:43:01;4.57;;;2.20;;
41755;SDS011;27435;48.480;9.258;2023-08-01T01:45:27;5.57;;;1.90;;
41755;SDS011;27435;48.480;9.258;2023-08-01T01:47:52;5.40;;;2.45;;
41755;SDS011;27435;48.480;9.258;2023-08-01T01:50:18;5.72;;;2.08;;
41755;SDS011;27435;48.480;9.258;2023-08-01T01:52:44;6.30;;;2.20;;
41755;SDS011;27435;48.480;9.258;2023-08-01T01:55:10;4.72;;;2.63;;
41755;SDS011;27435;48.480;9.258;2023-08-01T01:57:36;7.22;;;2.75;;
41755;SDS011;27435;48.480;9.258;2023-08-01T02:00:05;5.40;;;2.30;;
41755;SDS011;27435;48.480;9.258;2023-08-01T02:02:35;5.30;;;2.20;;
41755;SDS011;27435;48.480;9.258;2023-08-01T02:05:01;4.00;;;2.22;;
41755;SDS011;27435;48.480;9.258;2023-08-01T02:07:28;7.55;;;2.03;;
41755;SDS011;27435;48.480;9.258;2023-08-01T02:09:54;4.10;;;1.90;;
41755;SDS011;27435;48.480;9.258;2023-08-01T02:12:20;4.80;;;2.38;;
41755;SDS011;27435;48.480;9.258;2023-08-01T02:14:46;4.55;;;2.28;;
41755;SDS011;27435;48.480;9.258;2023-08-01T02:17:11;4.10;;;2.17;;
41755;SDS011;27435;48.480;9.258;2023-08-01T02:19:37;7.78;;;2.30;;
41755;SDS011;27435;48.480;9.258;2023-08-01T02:22:02;6.25;;;2.17;;
41755;SDS011;27435;48.480;9.258;2023-08-01T02:24:29;7.60;;;2.65;;
41755;SDS011;27435;48.480;9.258;2023-08-01T02:26:55;5.57;;;2.10;;
41755;SDS011;27435;48.480;9.258;2023-08-01T02:29:21;5.88;;;2.03;;
41755;SDS011;27435;48.480;9.258;2023-08-01T02:31:46;4.90;;;2.20;;
41755;SDS011;27435;48.480;9.258;2023-08-01T02:34:12;5.40;;;2.30;;
41755;SDS011;27435;48.480;9.258;2023-08-01T02:36:38;8.63;;;2.15;;
41755;SDS011;27435;48.480;9.258;2023-08-01T02:39:05;4.85;;;2.40;;
41755;SDS011;27435;48.480;9.258;2023-08-01T02:41:31;6.03;;;2.70;;
41755;SDS011;27435;48.480;9.258;2023-08-01T02:43:57;5.35;;;2.25;;
41755;SDS011;27435;48.480;9.258;2023-08-01T02:46:23;4.97;;;2.20;;
41755;SDS011;27435;48.480;9.258;2023-08-01T02:48:48;8.93;;;2.60;;
41755;SDS011;27435;48.480;9.258;2023-08-01T02:51:14;4.88;;;2.25;;
41755;SDS011;27435;48.480;9.258;2023-08-01T02:53:40;5.05;;;2.28;;
41755;SDS011;27435;48.480;9.258;2023-08-01T02:56:06;7.88;;;2.28;;
41755;SDS011;27435;48.480;9.258;2023-08-01T02:58:34;3.17;;;1.92;;
41755;SDS011;27435;48.480;9.258;2023-08-01T03:01:00;6.80;;;1.98;;
41755;SDS011;27435;48.480;9.258;2023-08-01T03:03:26;6.22;;;2.17;;
41755;SDS011;27435;48.480;9.258;2023-08-01T03:05:52;5.85;;;2.28;;
41755;SDS011;27435;48.480;9.258;2023-08-01T03:08:18;4.78;;;2.60;;
41755;SDS011;27435;48.480;9.258;2023-08-01T03:10:44;4.07;;;2.15;;
41755;SDS011;27435;48.480;9.258;2023-08-01T03:13:10;5.78;;;1.98;;
41755;SDS011;27435;48.480;9.258;2023-08-01T03:15:36;4.97;;;2.30;;
41755;SDS011;27435;48.480;9.258;2023-08-01T03:18:02;4.18;;;2.17;;
41755;SDS011;27435;48.480;9.258;2023-08-01T03:20:29;5.72;;;2.33;;
41755;SDS011;27435;48.480;9.258;2023-08-01T03:22:54;4.78;;;2.17;;
41755;SDS011;27435;48.480;9.258;2023-08-01T03:25:20;7.13;;;2.25;;
41755;SDS011;27435;48.480;9.258;2023-08-01T03:27:45;3.25;;;1.80;;
41755;SDS011;27435;48.480;9.258;2023-08-01T03:30:11;4.57;;;2.05;;
41755;SDS011;27435;48.480;9.258;2023-08-01T03:32:37;6.75;;;2.17;;
41755;SDS011;27435;48.480;9.258;2023-08-01T03:35:05;4.28;;;2.05;;
41755;SDS011;27435;48.480;9.258;2023-08-01T03:37:31;5.50;;;2.35;;
41755;SDS011;27435;48.480;9.258;2023-08-01T03:39:57;5.25;;;2.42;;
41755;SDS011;27435;48.480;9.258;2023-08-01T03:42:23;5.60;;;2.47;;
41755;SDS011;27435;48.480;9.258;2023-08-01T03:44:48;6.85;;;2.45;;
41755;SDS011;27435;48.480;9.258;2023-08-01T03:47:14;5.32;;;2.40;;
41755;SDS011;27435;48.480;9.258;2023-08-01T03:49:39;5.88;;;2.25;;
41755;SDS011;27435;48.480;9.258;2023-08-01T03:52:05;4.65;;;2.15;;
41755;SDS011;27435;48.480;9.258;2023-08-01T03:54:31;5.50;;;2.30;;
41755;SDS011;27435;48.480;9.258;2023-08-01T03:56:57;5.53;;;2.53;;
41755;SDS011;27435;48.480;9.258;2023-08-01T03:59:22;6.90;;;2.25;;
41755;SDS011;27435;48.480;9.258;2023-08-01T04:01:48;4.55;;;2.30;;
41755;SDS011;27435;48.480;9.258;2023-08-01T04:04:15;3.75;;;2.03;;
41755;SDS011;27435;48.480;9.258;2023-08-01T04:06:41;4.05;;;1.95;;
41755;SDS011;27435;48.480;9.258;2023-08-01T04:09:07;7.22;;;2.42;;
41755;SDS011;27435;48.480;9.258;2023-08-01T04:11:33;6.97;;;2.33;;
41755;SDS011;27435;48.480;9.258;2023-08-01T04:13:58;8.57;;;2.40;;
41755;SDS011;27435;48.480;9.258;2023-08-01T04:16:24;5.53;;;2.33;;
41755;SDS011;27435;48.480;9.258;2023-08-01T04:18:50;4.63;;;2.65;;
41755;SDS011;27435;48.480;9.258;2023-08-01T04:21:15;5.82;;;2.17;;
41755;SDS011;27435;48.480;9.258;2023-08-01T04:23:41;3.83;;;1.70;;
41755;SDS011;27435;48.480;9.258;2023-08-01T04:26:07;5.32;;;2.25;;
41755;SDS011;27435;48.480;9.258;2023-08-01T04:28:33;5.63;;;2.58;;
41755;SDS011;27435;48.480;9.258;2023-08-01T04:30:59;3.58;;;1.88;;
41755;SDS011;27435;48.480;9.258;2023-08-01T04:33:25;6.63;;;2.08;;
41755;SDS011;27435;48.480;9.258;2023-08-01T04:35:51;5.68;;;1.92;;
41755;SDS011;27435;48.480;9.258;2023-08-01T04:38:16;5.22;;;2.20;;
41755;SDS011;27435;48.480;9.258;2023-08-01T04:40:42;5.32;;;2.35;;
41755;SDS011;27435;48.480;9.258;2023-08-01T04:43:08;4.22;;;2.22;;
41755;SDS011;27435;48.480;9.258;2023-08-01T04:45:34;4.40;;;2.10;;
41755;SDS011;27435;48.480;9.258;2023-08-01T04:48:00;6.63;;;2.50;;
41755;SDS011;27435;48.480;9.258;2023-08-01T04:50:26;5.95;;;2.50;;
41755;SDS011;27435;48.480;9.258;2023-08-01T04:52:51;6.22;;;2.70;;
41755;SDS011;27435;48.480;9.258;2023-08-01T04:55:17;6.13;;;3.25;;
41755;SDS011;27435;48.480;9.258;2023-08-01T04:57:43;5.82;;;2.50;;
41755;SDS011;27435;48.480;9.258;2023-08-01T05:00:10;8.52;;;3.15;;
41755;SDS011;27435;48.480;9.258;2023-08-01T05:02:36;6.35;;;2.92;;
41755;SDS011;27435;48.480;9.258;2023-08-01T05:05:03;8.75;;;2.80;;
41755;SDS011;27435;48.480;9.258;2023-08-01T05:07:31;12.35;;;2.97;;
41755;SDS011;27435;48.480;9.258;2023-08-01T05:10:09;6.82;;;3.25;;
41755;SDS011;27435;48.480;9.258;2023-08-01T05:12:36;5.78;;;2.45;;
41755;SDS011;27435;48.480;9.258;2023-08-01T05:15:02;6.25;;;3.53;;
41755;SDS011;27435;48.480;9.258;2023-08-01T05:17:30;5.97;;;2.78;;
41755;SDS011;27435;48.480;9.258;2023-08-01T05:19:56;6.43;;;2.50;;
41755;SDS011;27435;48.480;9.258;2023-08-01T05:22:22;6.72;;;3.00;;
41755;SDS011;27435;48.480;9.258;2023-08-01T05:24:48;5.95;;;2.63;;
41755;SDS011;27435;48.480;9.258;2023-08-01T05:27:13;7.07;;;3.03;;
41755;SDS011;27435;48.480;9.258;2023-08-01T05:29:39;5.68;;;3.00;;
41755;SDS011;27435;48.480;9.258;2023-08-01T05:32:04;3.97;;;2.20;;
41755;SDS011;27435;48.480;9.258;2023-08-01T05:34:30;6.03;;;2.33;;
41755;SDS011;27435;48.480;9.258;2023-08-01T05:36:59;6.80;;;2.65;;
41755;SDS011;27435;48.480;9.258;2023-08-01T05:39:25;5.47;;;2.63;;
41755;SDS011;27435;48.480;9.258;2023-08-01T05:41:52;4.95;;;1.88;;
41755;SDS011;27435;48.480;9.258;2023-08-01T05:44:18;5.13;;;2.30;;
41755;SDS011;27435;48.480;9.258;2023-08-01T05:46:44;4.85;;;2.10;;
41755;SDS011;27435;48.480;9.258;2023-08-01T05:49:09;3.30;;;1.40;;
41755;SDS011;27435;48.480;9.258;2023-08-01T05:51:35;3.90;;;1.67;;
41755;SDS011;27435;48.480;9.258;2023-08-01T05:54:01;3.80;;;1.52;;
41755;SDS011;27435;48.480;9.258;2023-08-01T05:56:26;3.10;;;1.60;;
41755;SDS011;27435;48.480;9.258;2023-08-01T05:58:52;2.58;;;1.50;;
41755;SDS011;27435;48.480;9.258;2023-08-01T06:01:18;3.83;;;1.70;;
41755;SDS011;27435;48.480;9.258;2023-08-01T06:03:44;4.05;;;1.60;;
41755;SDS011;27435;48.480;9.258;2023-08-01T06:06:10;3.03;;;1.17;;
41755;SDS011;27435;48.480;9.258;2023-08-01T06:08:35;4.45;;;2.22;;
41755;SDS011;27435;48.480;9.258;2023-08-01T06:11:01;3.72;;;1.55;;
41755;SDS011;27435;48.480;9.258;2023-08-01T06:13:27;5.60;;;1.80;;
41755;SDS011;27435;48.480;9.258;2023-08-01T06:15:52;4.68;;;2.10;;
41755;SDS011;27435;48.480;9.258;2023-08-01T06:18:18;4.95;;;2.28;;
41755;SDS011;27435;48.480;9.258;2023-08-01T06:20:44;4.45;;;2.03;;
41755;SDS011;27435;48.480;9.258;2023-08-01T06:23:09;5.63;;;2.70;;
41755;SDS011;27435;48.480;9.258;2023-08-01T06:25:36;4.65;;;2.38;;
41755;SDS011;27435;48.480;9.258;2023-08-01T06:28:02;5.18;;;2.67;;
41755;SDS011;27435;48.480;9.258;2023-08-01T06:30:27;5.97;;;2.63;;
41755;SDS011;27435;48.480;9.258;2023-08-01T06:32:53;6.90;;;3.00;;
41755;SDS011;27435;48.480;9.258;2023-08-01T06:35:19;5.82;;;3.17;;
41755;SDS011;27435;48.480;9.258;2023-08-01T06:37:46;7.03;;;3.30;;
41755;SDS011;27435;48.480;9.258;2023-08-01T06:40:11;10.05;;;3.55;;
41755;SDS011;27435;48.480;9.258;2023-08-01T06:42:37;5.55;;;2.65;;
41755;SDS011;27435;48.480;9.258;2023-08-01T06:45:03;10.85;;;3.15;;
41755;SDS011;27435;48.480;9.258;2023-08-01T06:47:29;8.63;;;4.07;;
41755;SDS011;27435;48.480;9.258;2023-08-01T06:49:56;8.15;;;2.85;;
41755;SDS011;27435;48.480;9.258;2023-08-01T06:52:27;8.73;;;3.47;;
41755;SDS011;27435;48.480;9.258;2023-08-01T06:54:54;7.03;;;3.05;;
41755;SDS011;27435;48.480;9.258;2023-08-01T06:57:20;7.72;;;3.25;;
41755;SDS011;27435;48.480;9.258;2023-08-01T06:59:46;7.90;;;2.70;;
41755;SDS011;27435;48.480;9.258;2023-08-01T07:02:11;6.03;;;2.33;;
41755;SDS011;27435;48.480;9.258;2023-08-01T07:04:37;7.43;;;3.53;;
41755;SDS011;27435;48.480;9.258;2023-08-01T07:07:03;5.55;;;2.67;;
41755;SDS011;27435;48.480;9.258;2023-08-01T07:09:29;7.43;;;3.13;;
41755;SDS011;27435;48.480;9.258;2023-08-01T07:11:54;4.82;;;2.55;;
41755;SDS011;27435;48.480;9.258;2023-08-01T07:14:20;6.68;;;2.80;;
41755;SDS011;27435;48.480;9.258;2023-08-01T07:16:46;5.18;;;2.40;;
41755;SDS011;27435;48.480;9.258;2023-08-01T07:19:12;8.45;;;3.67;;
41755;SDS011;27435;48.480;9.258;2023-08-01T07:21:37;6.18;;;2.58;;
41755;SDS011;27435;48.480;9.258;2023-08-01T07:24:08;7.40;;;3.25;;
41755;SDS011;27435;48.480;9.258;2023-08-01T07:26:34;4.45;;;2.20;;
41755;SDS011;27435;48.480;9.258;2023-08-01T07:28:59;6.72;;;2.22;;
41755;SDS011;27435;48.480;9.258;2023-08-01T07:31:25;4.80;;;2.40;;
41755;SDS011;27435;48.480;9.258;2023-08-01T07:33:51;6.45;;;3.05;;
41755;SDS011;27435;48.480;9.258;2023-08-01T07:36:19;7.32;;;3.20;;
41755;SDS011;27435;48.480;9.258;2023-08-01T07:38:46;8.63;;;3.17;;
41755;SDS011;27435;48.480;9.258;2023-08-01T07:41:12;5.13;;;2.47;;
41755;SDS011;27435;48.480;9.258;2023-08-01T07:43:38;5.63;;;3.13;;
41755;SDS011;27435;48.480;9.258;2023-08-01T07:46:04;5.15;;;2.50;;
41755;SDS011;27435;48.480;9.258;2023-08-01T07:48:30;4.70;;;2.50;;
41755;SDS011;27435;48.480;9.258;2023-08-01T07:51:00;6.22;;;2.97;;
41755;SDS011;27435;48.480;9.258;2023-08-01T07:53:26;6.13;;;2.72;;
41755;SDS011;27435;48.480;9.258;2023-08-01T07:55:52;4.78;;;2.38;;
41755;SDS011;27435;48.480;9.258;2023-08-01T07:58:20;4.50;;;2.42;;
41755;SDS011;27435;48.480;9.258;2023-08-01T08:00:46;5.43;;;2.78;;
41755;SDS011;27435;48.480;9.258;2023-08-01T08:03:11;4.43;;;2.30;;
41755;SDS011;27435;48.480;9.258;2023-08-01T08:05:37;4.72;;;2.20;;
41755;SDS011;27435;48.480;9.258;2023-08-01T08:08:04;5.50;;;2.30;;
41755;SDS011;27435;48.480;9.258;2023-08-01T08:10:31;4.55;;;2.33;;
41755;SDS011;27435;48.480;9.258;2023-08-01T08:12:57;7.70;;;2.72;;
41755;SDS011;27435;48.480;9.258;2023-08-01T08:15:23;4.35;;;2.10;;
41755;SDS011;27435;48.480;9.258;2023-08-01T08:17:50;4.03;;;2.10;;
41755;SDS011;27435;48.480;9.258;2023-08-01T08:20:16;6.18;;;2.20;;
41755;SDS011;27435;48.480;9.258;2023-08-01T08:22:41;5.03;;;2.30;;
41755;SDS011;27435;48.480;9.258;2023-08-01T08:25:07;5.00;;;1.98;;
41755;SDS011;27435;48.480;9.258;2023-08-01T08:27:33;2.95;;;1.40;;
41755;SDS011;27435;48.480;9.258;2023-08-01T08:29:58;4.45;;;1.90;;
41755;SDS011;27435;48.480;9.258;2023-08-01T08:32:24;4.53;;;2.08;;
41755;SDS011;27435;48.480;9.258;2023-08-01T08:34:50;3.40;;;1.83;;
41755;SDS011;27435;48.480;9.258;2023-08-01T08:37:15;4.20;;;1.88;;
41755;SDS011;27435;48.480;9.258;2023-08-01T08:39:41;4.03;;;1.92;;
41755;SDS011;27435;48.480;9.258;2023-08-01T08:42:06;5.72;;;2.22;;
41755;SDS011;27435;48.480;9.258;2023-08-01T08:44:32;4.43;;;1.98;;
41755;SDS011;27435;48.480;9.258;2023-08-01T08:47:05;4.82;;;2.20;;
41755;SDS011;27435;48.480;9.258;2023-08-01T08:49:31;5.50;;;2.05;;
41755;SDS011;27435;48.480;9.258;2023-08-01T08:51:57;6.65;;;1.95;;
41755;SDS011;27435;48.480;9.258;2023-08-01T08:54:23;3.90;;;1.20;;
41755;SDS011;27435;48.480;9.258;2023-08-01T08:56:49;4.13;;;1.40;;
41755;SDS011;27435;48.480;9.258;2023-08-01T08:59:15;2.97;;;1.23;;
41755;SDS011;27435;48.480;9.258;2023-08-01T09:01:41;4.47;;;1.23;;
41755;SDS011;27435;48.480;9.258;2023-08-01T09:04:07;2.88;;;1.15;;
41755;SDS011;27435;48.480;9.258;2023-08-01T09:06:49;2.30;;;0.95;;
41755;SDS011;27435;48.480;9.258;2023-08-01T09:09:20;5.45;;;1.05;;
41755;SDS011;27435;48.480;9.258;2023-08-01T09:11:51;2.13;;;1.17;;
41755;SDS011;27435;48.480;9.258;2023-08-01T09:14:18;1.30;;;0.70;;
41755;SDS011;27435;48.480;9.258;2023-08-01T09:16:44;2.03;;;1.00;;
41755;SDS011;27435;48.480;9.258;2023-08-01T09:19:15;3.08;;;0.60;;
41755;SDS011;27435;48.480;9.258;2023-08-01T09:21:45;1.52;;;0.60;;
41755;SDS011;27435;48.480;9.258;2023-08-01T09:24:11;2.28;;;0.60;;
41755;SDS011;27435;48.480;9.258;2023-08-01T09:26:41;1.67;;;0.70;;
41755;SDS011;27435;48.480;9.258;2023-08-01T09:29:08;1.90;;;0.70;;
41755;SDS011;27435;48.480;9.258;2023-08-01T09:31:37;3.63;;;0.60;;
41755;SDS011;27435;48.480;9.258;2023-08-01T09:34:06;1.75;;;0.60;;
41755;SDS011;27435;48.480;9.258;2023-08-01T09:36:42;1.73;;;0.60;;
41755;SDS011;27435;48.480;9.258;2023-08-01T09:39:08;2.45;;;0.75;;
41755;SDS011;27435;48.480;9.258;2023-08-01T09:41:34;2.00;;;0.60;;
41755;SDS011;27435;48.480;9.258;2023-08-01T09:43:59;1.60;;;0.50;;
41755;SDS011;27435;48.480;9.258;2023-08-01T09:46:25;1.05;;;0.38;;
41755;SDS011;27435;48.480;9.258;2023-08-01T09:48:51;1.45;;;0.35;;
41755;SDS011;27435;48.480;9.258;2023-08-01T09:51:17;1.48;;;0.40;;
41755;SDS011;27435;48.480;9.258;2023-08-01T09:53:50;2.13;;;0.40;;
41755;SDS011;27435;48.480;9.258;2023-08-01T09:56:21;4.30;;;0.65;;
41755;SDS011;27435;48.480;9.258;2023-08-01T09:58:49;1.48;;;0.52;;
41755;SDS011;27435;48.480;9.258;2023-08-01T10:01:18;0.93;;;0.30;;
41755;SDS011;27435;48.480;9.258;2023-08-01T10:03:49;1.08;;;0.40;;
41755;SDS011;27435;48.480;9.258;2023-08-01T10:06:20;0.85;;;0.30;;
41755;SDS011;27435;48.480;9.258;2023-08-01T10:08:48;0.88;;;0.40;;
41755;SDS011;27435;48.480;9.258;2023-08-01T10:11:16;1.85;;;0.22;;
41755;SDS011;27435;48.480;9.258;2023-08-01T10:13:46;0.17;;;0.10;;
41755;SDS011;27435;48.480;9.258;2023-08-01T10:16:12;1.40;;;0.70;;
41755;SDS011;27435;48.480;9.258;2023-08-01T10:18:39;2.42;;;0.60;;
41755;SDS011;27435;48.480;9.258;2023-08-01T10:21:06;0.98;;;0.30;;
41755;SDS011;27435;48.480;9.258;2023-08-01T10:23:33;4.70;;;0.73;;
41755;SDS011;27435;48.480;9.258;2023-08-01T10:26:00;1.90;;;0.50;;
41755;SDS011;27435;48.480;9.258;2023-08-01T10:31:51;2.20;;;0.60;;
41755;SDS011;27435;48.480;9.258;2023-08-01T10:34:17;2.33;;;0.70;;
41755;SDS011;27435;48.480;9.258;2023-08-01T10:36:53;5.43;;;1.35;;
41755;SDS011;27435;48.480;9.258;2023-08-01T10:39:21;3.15;;;0.70;;
41755;SDS011;27435;48.480;9.258;2023-08-01T10:41:55;3.78;;;1.48;;
41755;SDS011;27435;48.480;9.258;2023-08-01T10:44:25;1.00;;;0.50;;
41755;SDS011;27435;48.480;9.258;2023-08-01T10:46:52;2.65;;;0.80;;
41755;SDS011;27435;48.480;9.258;2023-08-01T10:52:04;2.63;;;0.47;;
41755;SDS011;27435;48.480;9.258;2023-08-01T10:54:43;1.98;;;0.50;;
41755;SDS011;27435;48.480;9.258;2023-08-01T10:57:09;1.90;;;0.70;;
41755;SDS011;27435;48.480;9.258;2023-08-01T10:59:49;1.30;;;0.57;;
41755;SDS011;27435;48.480;9.258;2023-08-01T11:02:28;1.02;;;0.47;;
41755;SDS011;27435;48.480;9.258;2023-08-01T11:05:00;3.50;;;0.60;;
41755;SDS011;27435;48.480;9.258;2023-08-01T11:07:31;1.10;;;0.50;;
41755;SDS011;27435;48.480;9.258;2023-08-01T11:12:37;4.43;;;0.60;;
41755;SDS011;27435;48.480;9.258;2023-08-01T11:15:07;2.33;;;0.57;;
41755;SDS011;27435;48.480;9.258;2023-08-01T11:17:51;1.40;;;0.77;;
41755;SDS011;27435;48.480;9.258;2023-08-01T11:20:22;1.58;;;0.52;;
41755;SDS011;27435;48.480;9.258;2023-08-01T11:23:00;1.33;;;0.50;;
41755;SDS011;27435;48.480;9.258;2023-08-01T11:25:42;0.70;;;0.30;;
41755;SDS011;27435;48.480;9.258;2023-08-01T11:28:16;1.23;;;0.63;;
41755;SDS011;27435;48.480;9.258;2023-08-01T11:30:45;1.20;;;0.50;;
41755;SDS011;27435;48.480;9.258;2023-08-01T11:33:24;2.05;;;0.60;;
41755;SDS011;27435;48.480;9.258;2023-08-01T11:35:53;2.10;;;0.57;;
41755;SDS011;27435;48.480;9.258;2023-08-01T11:38:30;2.25;;;0.65;;
41755;SDS011;27435;48.480;9.258;2023-08-01T11:41:07;3.05;;;0.70;;
41755;SDS011;27435;48.480;9.258;2023-08-01T11:43:44;1.23;;;0.50;;
41755;SDS011;27435;48.480;9.258;2023-08-01T11:46:10;2.10;;;0.60;;
41755;SDS011;27435;48.480;9.258;2023-08-01T11:48:48;1.58;;;0.60;;
41755;SDS011;27435;48.480;9.258;2023-08-01T11:51:16;1.50;;;0.60;;
41755;SDS011;27435;48.480;9.258;2023-08-01T11:53:42;1.52;;;0.73;;
41755;SDS011;27435;48.480;9.258;2023-08-01T11:56:19;1.98;;;0.68;;
41755;SDS011;27435;48.480;9.258;2023-08-01T11:58:52;2.30;;;0.50;;
41755;SDS011;27435;48.480;9.258;2023-08-01T12:01:22;1.92;;;0.50;;
41755;SDS011;27435;48.480;9.258;2023-08-01T12:06:22;4.60;;;0.90;;
41755;SDS011;27435;48.480;9.258;2023-08-01T12:08:49;1.63;;;0.65;;
41755;SDS011;27435;48.480;9.258;2023-08-01T12:11:19;1.70;;;0.80;;
41755;SDS011;27435;48.480;9.258;2023-08-01T12:14:05;3.30;;;0.70;;
41755;SDS011;27435;48.480;9.258;2023-08-01T12:16:37;2.42;;;0.73;;
41755;SDS011;27435;48.480;9.258;2023-08-01T12:19:03;5.07;;;0.88;;
41755;SDS011;27435;48.480;9.258;2023-08-01T12:21:30;3.25;;;0.60;;
41755;SDS011;27435;48.480;9.258;2023-08-01T12:23:57;3.45;;;0.70;;
41755;SDS011;27435;48.480;9.258;2023-08-01T12:26:23;2.95;;;0.80;;
41755;SDS011;27435;48.480;9.258;2023-08-01T12:28:49;1.95;;;0.80;;
41755;SDS011;27435;48.480;9.258;2023-08-01T12:31:15;1.40;;;0.70;;
41755;SDS011;27435;48.480;9.258;2023-08-01T12:33:44;1.42;;;0.63;;
41755;SDS011;27435;48.480;9.258;2023-08-01T12:36:11;1.58;;;0.70;;
41755;SDS011;27435;48.480;9.258;2023-08-01T12:38:37;1.60;;;0.55;;
41755;SDS011;27435;48.480;9.258;2023-08-01T12:41:06;1.67;;;0.52;;
41755;SDS011;27435;48.480;9.258;2023-08-01T12:43:35;1.83;;;0.70;;
41755;SDS011;27435;48.480;9.258;2023-08-01T12:46:00;3.78;;;0.63;;
41755;SDS011;27435;48.480;9.258;2023-08-01T12:48:26;2.55;;;0.73;;
41755;SDS011;27435;48.480;9.258;2023-08-01T12:50:53;1.90;;;0.77;;
41755;SDS011;27435;48.480;9.258;2023-08-01T12:53:19;2.70;;;0.60;;
41755;SDS011;27435;48.480;9.258;2023-08-01T12:55:48;2.28;;;0.60;;
41755;SDS011;27435;48.480;9.258;2023-08-01T12:58:15;2.53;;;0.98;;
41755;SDS011;27435;48.480;9.258;2023-08-01T13:00:42;1.25;;;0.60;;
41755;SDS011;27435;48.480;9.258;2023-08-01T13:03:08;2.10;;;0.60;;
41755;SDS011;27435;48.480;9.258;2023-08-01T13:05:35;1.58;;;0.68;;
41755;SDS011;27435;48.480;9.258;2023-08-01T13:08:02;1.55;;;0.60;;
41755;SDS011;27435;48.480;9.258;2023-08-01T13:10:31;1.58;;;0.60;;
41755;SDS011;27435;48.480;9.258;2023-08-01T13:12:58;2.33;;;0.85;;
41755;SDS011;27435;48.480;9.258;2023-08-01T13:15:26;1.85;;;0.63;;
41755;SDS011;27435;48.480;9.258;2023-08-01T13:17:53;2.15;;;0.50;;
41755;SDS011;27435;48.480;9.258;2023-08-01T13:20:22;2.33;;;0.80;;
41755;SDS011;27435;48.480;9.258;2023-08-01T13:22:50;1.40;;;0.68;;
41755;SDS011;27435;48.480;9.258;2023-08-01T13:25:16;1.40;;;0.60;;
41755;SDS011;27435;48.480;9.258;2023-08-01T13:27:42;4.35;;;0.60;;
41755;SDS011;27435;48.480;9.258;2023-08-01T13:30:08;1.10;;;0.50;;
41755;SDS011;27435;48.480;9.258;2023-08-01T13:32:35;2.10;;;0.50;;
41755;SDS011;27435;48.480;9.258;2023-08-01T13:35:01;1.70;;;0.80;;
41755;SDS011;27435;48.480;9.258;2023-08-01T13:37:27;1.52;;;0.50;;
41755;SDS011;27435;48.480;9.258;2023-08-01T13:39:54;0.85;;;0.40;;
41755;SDS011;27435;48.480;9.258;2023-08-01T13:42:21;1.13;;;0.40;;
41755;SDS011;27435;48.480;9.258;2023-08-01T13:44:47;1.38;;;0.70;;
41755;SDS011;27435;48.480;9.258;2023-08-01T13:47:12;1.17;;;0.50;;
41755;SDS011;27435;48.480;9.258;2023-08-01T13:49:38;4.38;;;0.70;;
41755;SDS011;27435;48.480;9.258;2023-08-01T13:52:04;2.10;;;0.43;;
41755;SDS011;27435;48.480;9.258;2023-08-01T13:54:30;1.00;;;0.40;;
41755;SDS011;27435;48.480;9.258;2023-08-01T13:56:55;1.75;;;0.50;;
41755;SDS011;27435;48.480;9.258;2023-08-01T13:59:22;1.05;;;0.50;;
41755;SDS011;27435;48.480;9.258;2023-08-01T14:01:48;1.15;;;0.57;;
41755;SDS011;27435;48.480;9.258;2023-08-01T14:04:13;2.25;;;0.68;;
41755;SDS011;27435;48.480;9.258;2023-08-01T14:06:39;1.40;;;0.60;;
41755;SDS011;27435;48.480;9.258;2023-08-01T14:09:06;2.08;;;0.90;;
41755;SDS011;27435;48.480;9.258;2023-08-01T14:11:34;1.85;;;0.70;;
41755;SDS011;27435;48.480;9.258;2023-08-01T14:14:00;2.00;;;0.68;;
41755;SDS011;27435;48.480;9.258;2023-08-01T14:16:26;4.00;;;0.70;;
41755;SDS011;27435;48.480;9.258;2023-08-01T14:18:51;2.38;;;0.90;;
41755;SDS011;27435;48.480;9.258;2023-08-01T14:21:17;1.80;;;0.65;;
41755;SDS011;27435;48.480;9.258;2023-08-01T14:23:43;1.70;;;0.68;;
41755;SDS011;27435;48.480;9.258;2023-08-01T14:26:08;1.10;;;0.57;;
41755;SDS011;27435;48.480;9.258;2023-08-01T14:28:34;4.45;;;0.70;;
41755;SDS011;27435;48.480;9.258;2023-08-01T14:31:00;1.55;;;0.60;;
41755;SDS011;27435;48.480;9.258;2023-08-01T14:33:27;1.48;;;0.75;;
41755;SDS011;27435;48.480;9.258;2023-08-01T14:35:53;1.70;;;0.45;;
41755;SDS011;27435;48.480;9.258;2023-08-01T14:38:19;0.98;;;0.43;;
41755;SDS011;27435;48.480;9.258;2023-08-01T14:40:44;1.52;;;0.50;;
41755;SDS011;27435;48.480;9.258;2023-08-01T14:43:10;2.13;;;0.70;;
41755;SDS011;27435;48.480;9.258;2023-08-01T14:45:41;1.90;;;0.50;;
41755;SDS011;27435;48.480;9.258;2023-08-01T14:48:07;1.90;;;0.52;;
41755;SDS011;27435;48.480;9.258;2023-08-01T14:50:33;1.70;;;0.50;;
41755;SDS011;27435;48.480;9.258;2023-08-01T14:53:02;1.98;;;0.70;;
41755;SDS011;27435;48.480;9.258;2023-08-01T14:55:29;2.25;;;0.80;;
41755;SDS011;27435;48.480;9.258;2023-08-01T14:57:55;3.65;;;0.73;;